Amherst, Colorado
Current Conditions -  °F | °C
As of 7:16 PM on Wednesday 17 Dec 2014 (Local Time) from KIML Reporting Station
Haze Haze  
Wind Chill: 16°   Ceiling: 300
Heat Index: 24°   Visibility: 3mi
Dew Point: 21°   Wind: 7mph
Humidity: 88%   Direction: 160°SSE
Pressure: 30.07"   Gusts: NA
Location:  40.68°N, 102.17°W
Report Text: KIML 180216Z AUTO 16006KT 3SM BR OVC003 M04/M06 A3007 RMK AO2 I1001 T10441061
Loading
Personal Weather Stations






























Interactive Weather Map New forecast layout! Learn more

10-Day Weather Forecast

Advertisements
Track Severe Weather on mobile